Time;durP1;ratioP1;P1;durP2;ratioP2;P2;SDS_P1;SDS_P2;PMS_P1;PMS_P2;Temp;Humidity;BMP_temperature;BMP_pressure;BME280_temperature;BME280_humidity;BME280_pressure;Samples;Min_cycle;Max_cycle;Signal;HPM_P1;HPM_P2
2022/09/26 00:01:06;;;;;;;0.45;0.28;;;;;;;;;;5025553;28;20061;-76
2022/09/26 00:03:36;;;;;;;1.08;0.57;;;;;;;;;;5020710;28;20049;-76
2022/09/26 00:06:05;;;;;;;2.13;1.00;;;;;;;;;;5024175;28;20038;-76
2022/09/26 00:08:34;;;;;;;0.82;0.43;;;;;;;;;;5021630;28;20173;-76
2022/09/26 00:11:03;;;;;;;0.75;0.68;;;;;;;;;;5014445;28;20061;-76
2022/09/26 00:13:32;;;;;;;0.70;0.63;;;;;;;;;;5022386;28;20913;-76
2022/09/26 00:16:00;;;;;;;0.30;0.30;;;;;;;;;;5012644;28;20055;-76
2022/09/26 00:18:29;;;;;;;0.82;0.45;;;;;;;;;;5024529;28;20056;-76
2022/09/26 00:21:04;;;;;;;1.42;0.55;;;;;;;;;;5024525;28;20088;-76
2022/09/26 00:23:32;;;;;;;0.93;0.47;;;;;;;;;;5026586;28;20421;-77
2022/09/26 00:26:01;;;;;;;2.13;0.63;;;;;;;;;;5029205;28;20386;-76
2022/09/26 00:28:29;;;;;;;0.77;0.52;;;;;;;;;;5028606;28;20048;-76
2022/09/26 00:30:57;;;;;;;0.57;0.57;;;;;;;;;;5014588;28;20053;-76
2022/09/26 00:33:26;;;;;;;0.65;0.65;;;;;;;;;;5022881;28;20041;-76
2022/09/26 00:35:55;;;;;;;0.28;0.28;;;;;;;;;;5024133;28;20443;-77
2022/09/26 00:38:25;;;;;;;1.50;0.60;;;;;;;;;;5018794;28;20037;-76
2022/09/26 00:40:54;;;;;;;0.65;0.52;;;;;;;;;;5021675;28;20050;-77
2022/09/26 00:43:29;;;;;;;0.90;0.52;;;;;;;;;;5015143;28;20461;-76
2022/09/26 00:45:59;;;;;;;1.63;0.68;;;;;;;;;;5019849;28;20609;-76
2022/09/26 00:48:28;;;;;;;2.58;0.60;;;;;;;;;;5022771;28;20107;-76
2022/09/26 00:50:56;;;;;;;1.13;0.52;;;;;;;;;;5023425;28;20050;-76
2022/09/26 00:53:27;;;;;;;2.30;0.77;;;;;;;;;;5022059;28;20060;-76
2022/09/26 00:55:58;;;;;;;1.88;0.73;;;;;;;;;;5018760;28;20060;-77
2022/09/26 00:58:29;;;;;;;1.65;0.80;;;;;;;;;;5016878;28;20277;-77
2022/09/26 01:00:57;;;;;;;2.55;0.85;;;;;;;;;;5020716;28;20049;-77
2022/09/26 01:03:26;;;;;;;1.02;0.68;;;;;;;;;;5025587;28;20283;-76
2022/09/26 01:05:55;;;;;;;0.80;0.65;;;;;;;;;;5014544;28;20050;-76
2022/09/26 01:08:27;;;;;;;1.02;0.60;;;;;;;;;;5022575;28;20049;-76
2022/09/26 01:10:57;;;;;;;0.65;0.57;;;;;;;;;;5022822;28;20059;-75
2022/09/26 01:13:26;;;;;;;1.08;0.68;;;;;;;;;;5018543;28;20054;-75
2022/09/26 01:15:54;;;;;;;0.73;0.50;;;;;;;;;;5020415;28;20062;-77
2022/09/26 01:18:22;;;;;;;2.13;1.25;;;;;;;;;;5028973;28;20485;-77
2022/09/26 01:20:52;;;;;;;1.83;1.17;;;;;;;;;;5029849;28;20485;-76
2022/09/26 01:23:44;;;;;;;1.67;0.75;;;;;;;;;;5025937;28;20056;-77
2022/09/26 01:26:30;;;;;;;1.40;0.60;;;;;;;;;;5022309;28;20042;-77
2022/09/26 01:29:17;;;;;;;1.65;0.90;;;;;;;;;;5029105;28;20049;-77
2022/09/26 01:34:36;;;;;;;0.95;0.60;;;;;;;;;;5027497;28;20509;-76
2022/09/26 01:37:09;;;;;;;3.75;1.20;;;;;;;;;;5021194;28;20061;-76
2022/09/26 01:39:50;;;;;;;2.10;1.10;;;;;;;;;;5015403;28;20054;-76
2022/09/26 01:42:23;;;;;;;1.50;0.93;;;;;;;;;;5019484;28;20065;-76
2022/09/26 01:44:56;;;;;;;1.23;0.75;;;;;;;;;;5013312;28;20050;-76
2022/09/26 01:47:28;;;;;;;1.00;0.82;;;;;;;;;;5016509;28;20049;-76
2022/09/26 01:49:58;;;;;;;0.85;0.68;;;;;;;;;;5025173;28;20053;-76
2022/09/26 01:52:32;;;;;;;1.15;0.73;;;;;;;;;;5021851;28;20085;-76
2022/09/26 01:55:04;;;;;;;2.05;0.52;;;;;;;;;;5023936;28;20046;-76
2022/09/26 01:57:35;;;;;;;1.05;0.88;;;;;;;;;;5031560;28;20055;-76
2022/09/26 02:00:05;;;;;;;2.78;1.23;;;;;;;;;;5027612;28;20436;-76
2022/09/26 02:02:36;;;;;;;0.82;0.50;;;;;;;;;;5027276;28;20041;-76
2022/09/26 02:05:07;;;;;;;1.58;0.90;;;;;;;;;;5019601;28;20507;-75
2022/09/26 02:07:38;;;;;;;2.70;0.95;;;;;;;;;;5027353;28;20057;-76
2022/09/26 02:10:10;;;;;;;0.82;0.68;;;;;;;;;;5032859;28;20049;-76
2022/09/26 02:12:40;;;;;;;1.60;0.77;;;;;;;;;;5021424;28;20053;-75
2022/09/26 02:15:11;;;;;;;1.17;1.00;;;;;;;;;;5028014;28;20046;-75
2022/09/26 02:17:42;;;;;;;0.77;0.60;;;;;;;;;;5015626;28;20049;-75
2022/09/26 02:20:13;;;;;;;0.93;0.82;;;;;;;;;;5026054;28;20061;-76
2022/09/26 02:22:42;;;;;;;1.20;1.10;;;;;;;;;;5019720;28;20056;-75
2022/09/26 02:25:11;;;;;;;0.80;0.80;;;;;;;;;;5015406;28;20053;-76
2022/09/26 02:27:39;;;;;;;4.03;1.60;;;;;;;;;;5030223;28;20058;-76
2022/09/26 02:30:08;;;;;;;1.38;1.00;;;;;;;;;;5027967;28;20053;-76
2022/09/26 02:32:37;;;;;;;2.75;0.95;;;;;;;;;;5027792;28;20053;-75
2022/09/26 02:37:58;;;;;;;2.80;1.30;;;;;;;;;;5028886;28;20528;-75
2022/09/26 02:40:31;;;;;;;0.98;0.80;;;;;;;;;;5023507;28;20049;-76
2022/09/26 02:43:07;;;;;;;0.95;0.75;;;;;;;;;;5012758;28;20049;-76
2022/09/26 02:45:40;;;;;;;1.27;1.17;;;;;;;;;;5029879;28;20054;-75
2022/09/26 02:48:17;;;;;;;1.45;1.30;;;;;;;;;;5031435;28;20038;-76
2022/09/26 02:50:53;;;;;;;1.20;0.73;;;;;;;;;;5031223;28;20410;-75
2022/09/26 02:53:30;;;;;;;5.57;1.38;;;;;;;;;;5030591;28;20071;-76
2022/09/26 02:56:03;;;;;;;4.93;1.05;;;;;;;;;;5027414;28;20053;-76
2022/09/26 02:58:35;;;;;;;2.17;1.60;;;;;;;;;;5025102;28;20507;-75
2022/09/26 03:01:06;;;;;;;0.88;0.70;;;;;;;;;;5030368;28;20568;-75
2022/09/26 03:03:38;;;;;;;3.47;1.48;;;;;;;;;;5022037;28;20053;-75
2022/09/26 03:06:09;;;;;;;1.65;0.82;;;;;;;;;;5028477;28;20128;-75
2022/09/26 03:08:39;;;;;;;0.88;0.82;;;;;;;;;;5021882;28;20053;-75
2022/09/26 03:11:09;;;;;;;2.83;1.48;;;;;;;;;;5020463;28;20116;-76
2022/09/26 03:13:39;;;;;;;1.52;1.02;;;;;;;;;;5024170;28;20060;-76
2022/09/26 03:16:08;;;;;;;2.05;1.08;;;;;;;;;;5025945;28;20041;-76
2022/09/26 03:18:39;;;;;;;1.85;1.00;;;;;;;;;;5024448;28;20545;-75
2022/09/26 03:21:09;;;;;;;2.55;1.50;;;;;;;;;;5027674;28;20046;-76
2022/09/26 03:23:37;;;;;;;2.50;1.50;;;;;;;;;;5023652;28;20042;-75
2022/09/26 03:26:10;;;;;;;2.45;1.10;;;;;;;;;;5016495;28;20405;-76
2022/09/26 03:28:40;;;;;;;1.10;1.00;;;;;;;;;;5017582;28;20050;-76
2022/09/26 03:31:08;;;;;;;1.50;1.13;;;;;;;;;;5026937;28;20049;-75
2022/09/26 03:33:36;;;;;;;2.00;1.25;;;;;;;;;;5027245;28;20428;-75
2022/09/26 03:36:06;;;;;;;2.42;1.55;;;;;;;;;;5023620;28;20053;-75
2022/09/26 03:38:36;;;;;;;2.50;1.50;;;;;;;;;;5027261;28;20061;-75
2022/09/26 03:41:04;;;;;;;2.50;1.10;;;;;;;;;;5026047;28;20049;-75
2022/09/26 03:43:33;;;;;;;5.82;1.90;;;;;;;;;;5024287;28;20490;-75
2022/09/26 03:46:02;;;;;;;4.05;1.98;;;;;;;;;;5026676;28;20050;-75
2022/09/26 03:48:31;;;;;;;2.80;1.50;;;;;;;;;;5023279;28;20088;-75
2022/09/26 03:51:02;;;;;;;1.73;1.45;;;;;;;;;;5028999;28;20053;-75
2022/09/26 03:53:31;;;;;;;2.17;0.90;;;;;;;;;;5022255;28;20049;-75
2022/09/26 03:56:04;;;;;;;1.98;1.23;;;;;;;;;;5016966;28;20054;-75
2022/09/26 03:58:33;;;;;;;2.05;1.33;;;;;;;;;;5026550;28;20042;-75
2022/09/26 04:01:06;;;;;;;2.65;1.25;;;;;;;;;;5022609;28;20338;-75
2022/09/26 04:03:35;;;;;;;2.78;1.25;;;;;;;;;;5023282;28;20111;-75
2022/09/26 04:06:04;;;;;;;3.92;1.80;;;;;;;;;;5026528;28;20053;-75
2022/09/26 04:08:32;;;;;;;2.03;1.63;;;;;;;;;;5019042;28;20334;-75
2022/09/26 04:11:02;;;;;;;4.88;2.08;;;;;;;;;;5028973;28;20520;-75
2022/09/26 04:13:32;;;;;;;2.20;1.67;;;;;;;;;;5015516;28;20050;-75
2022/09/26 04:16:19;;;;;;;4.00;1.80;;;;;;;;;;5023333;28;20053;-75
2022/09/26 04:18:48;;;;;;;2.92;1.58;;;;;;;;;;5027264;28;20489;-75
2022/09/26 04:21:16;;;;;;;3.25;1.73;;;;;;;;;;5027636;28;20061;-74
2022/09/26 04:23:45;;;;;;;3.60;2.08;;;;;;;;;;5027688;28;20517;-74
2022/09/26 04:26:14;;;;;;;4.68;1.27;;;;;;;;;;5026904;28;20054;-74
2022/09/26 04:28:53;;;;;;;2.22;1.42;;;;;;;;;;5030926;28;20049;-75
2022/09/26 04:31:22;;;;;;;6.85;2.20;;;;;;;;;;5023195;28;20084;-76
2022/09/26 04:33:53;;;;;;;2.20;1.17;;;;;;;;;;5027948;28;20073;-76
2022/09/26 04:36:22;;;;;;;3.05;1.60;;;;;;;;;;5020227;28;20045;-77
2022/09/26 04:38:50;;;;;;;2.80;1.42;;;;;;;;;;5025230;28;20156;-75
2022/09/26 04:41:19;;;;;;;2.30;1.67;;;;;;;;;;5021130;28;20061;-76
2022/09/26 04:43:48;;;;;;;5.00;2.20;;;;;;;;;;5025656;28;20049;-76
2022/09/26 04:46:19;;;;;;;2.42;1.67;;;;;;;;;;5021875;28;20131;-75
2022/09/26 04:48:52;;;;;;;2.38;1.67;;;;;;;;;;5023893;28;20132;-77
2022/09/26 04:51:21;;;;;;;5.07;2.45;;;;;;;;;;5023923;28;20041;-76
2022/09/26 04:53:50;;;;;;;2.17;1.13;;;;;;;;;;5022999;28;20053;-76
2022/09/26 04:56:19;;;;;;;3.88;1.67;;;;;;;;;;5027203;28;20052;-77
2022/09/26 04:58:48;;;;;;;5.40;1.98;;;;;;;;;;5015375;28;20072;-76
2022/09/26 05:01:19;;;;;;;3.55;1.42;;;;;;;;;;5029389;28;20045;-76
2022/09/26 05:03:48;;;;;;;3.30;1.83;;;;;;;;;;5018676;28;20046;-77
2022/09/26 05:06:16;;;;;;;2.58;1.48;;;;;;;;;;5026450;28;20042;-76
2022/09/26 05:08:46;;;;;;;4.60;2.03;;;;;;;;;;5018162;28;20529;-75
2022/09/26 05:11:15;;;;;;;2.22;1.42;;;;;;;;;;5022934;28;20065;-78
2022/09/26 05:13:44;;;;;;;4.65;2.55;;;;;;;;;;5018377;28;20492;-76
2022/09/26 05:16:14;;;;;;;2.90;1.33;;;;;;;;;;5015545;28;20100;-76
2022/09/26 05:18:44;;;;;;;3.85;1.80;;;;;;;;;;5022332;28;20057;-77
2022/09/26 05:21:12;;;;;;;1.80;1.15;;;;;;;;;;5024602;28;20052;-77
2022/09/26 05:26:27;;;;;;;3.85;2.03;;;;;;;;;;5025243;28;20049;-77
2022/09/26 05:29:00;;;;;;;3.10;1.85;;;;;;;;;;5022633;28;20049;-77
2022/09/26 05:31:36;;;;;;;5.95;2.15;;;;;;;;;;5025880;28;20068;-79
2022/09/26 05:34:07;;;;;;;2.45;1.48;;;;;;;;;;5024167;28;20438;-78
2022/09/26 05:36:35;;;;;;;1.83;1.20;;;;;;;;;;5031118;28;20045;-78
2022/09/26 05:39:04;;;;;;;2.92;1.52;;;;;;;;;;5029774;28;20060;-76
2022/09/26 05:41:32;;;;;;;1.70;1.13;;;;;;;;;;5021446;28;20049;-77
2022/09/26 05:44:00;;;;;;;2.75;1.60;;;;;;;;;;5017774;28;20735;-76
2022/09/26 05:46:32;;;;;;;2.47;1.25;;;;;;;;;;5011592;28;20046;-77
2022/09/26 05:49:01;;;;;;;1.77;0.98;;;;;;;;;;5018987;28;20045;-77
2022/09/26 05:51:32;;;;;;;1.00;0.77;;;;;;;;;;5016371;28;20058;-76
2022/09/26 05:54:00;;;;;;;3.78;1.92;;;;;;;;;;5019757;28;20056;-75
2022/09/26 05:56:29;;;;;;;1.60;1.20;;;;;;;;;;5024732;28;20049;-77
2022/09/26 05:58:57;;;;;;;2.97;1.20;;;;;;;;;;5022519;28;20058;-77
2022/09/26 06:01:25;;;;;;;2.38;1.60;;;;;;;;;;5019776;28;21251;-77
2022/09/26 06:03:53;;;;;;;3.05;1.27;;;;;;;;;;5021518;28;20057;-77
2022/09/26 06:06:22;;;;;;;3.70;1.98;;;;;;;;;;5018919;28;20050;-77
2022/09/26 06:08:51;;;;;;;4.90;1.73;;;;;;;;;;5024511;28;20050;-77
2022/09/26 06:11:26;;;;;;;0.80;0.70;;;;;;;;;;5023769;28;20060;-77
2022/09/26 06:13:54;;;;;;;1.45;1.27;;;;;;;;;;5030299;28;20564;-78
2022/09/26 06:16:23;;;;;;;3.47;1.65;;;;;;;;;;5028984;28;20170;-76
2022/09/26 06:18:54;;;;;;;4.20;2.33;;;;;;;;;;5025000;28;20128;-76
2022/09/26 06:21:22;;;;;;;3.80;2.20;;;;;;;;;;5029316;28;20057;-76
2022/09/26 06:23:52;;;;;;;3.17;1.45;;;;;;;;;;5029453;28;20068;-77
2022/09/26 06:26:22;;;;;;;4.05;2.38;;;;;;;;;;5027995;28;20056;-77
2022/09/26 06:28:55;;;;;;;2.40;1.30;;;;;;;;;;5029131;28;20057;-77
2022/09/26 06:31:24;;;;;;;3.50;1.92;;;;;;;;;;5025550;28;20076;-77
2022/09/26 06:33:54;;;;;;;3.20;2.00;;;;;;;;;;5026848;28;20056;-77
2022/09/26 06:36:23;;;;;;;2.45;1.33;;;;;;;;;;5019222;28;20061;-77
2022/09/26 06:38:54;;;;;;;3.28;2.17;;;;;;;;;;5028120;28;20076;-78
2022/09/26 06:41:25;;;;;;;5.75;1.58;;;;;;;;;;5027154;28;20049;-77
2022/09/26 06:43:53;;;;;;;3.53;1.88;;;;;;;;;;5019573;28;20188;-77
2022/09/26 06:46:22;;;;;;;2.92;1.25;;;;;;;;;;5025113;28;20053;-77
2022/09/26 06:48:50;;;;;;;4.95;2.05;;;;;;;;;;5025859;28;20057;-76
2022/09/26 06:51:19;;;;;;;2.40;1.58;;;;;;;;;;5021627;28;20042;-77
2022/09/26 06:53:48;;;;;;;4.05;1.75;;;;;;;;;;5024139;28;20080;-79
2022/09/26 06:56:18;;;;;;;4.15;2.17;;;;;;;;;;5022509;28;20042;-77
2022/09/26 06:58:48;;;;;;;2.15;1.38;;;;;;;;;;5024693;28;20049;-77
2022/09/26 07:01:17;;;;;;;3.88;2.10;;;;;;;;;;5022192;28;20045;-77
2022/09/26 07:03:46;;;;;;;2.80;2.00;;;;;;;;;;5019079;28;20431;-77
2022/09/26 07:06:16;;;;;;;2.28;1.42;;;;;;;;;;5019909;28;20102;-77
2022/09/26 07:08:44;;;;;;;1.70;0.95;;;;;;;;;;5028585;28;20056;-76
2022/09/26 07:11:34;;;;;;;1.95;1.33;;;;;;;;;;5025829;28;20060;-76
2022/09/26 07:14:22;;;;;;;3.28;1.88;;;;;;;;;;5025915;28;20651;-77
2022/09/26 07:16:51;;;;;;;3.90;1.38;;;;;;;;;;5027470;28;20045;-77
2022/09/26 07:19:20;;;;;;;1.98;1.27;;;;;;;;;;5027705;28;20096;-78
2022/09/26 07:21:49;;;;;;;4.25;1.73;;;;;;;;;;5026994;28;20049;-77
2022/09/26 07:24:17;;;;;;;2.85;1.50;;;;;;;;;;5027024;28;20129;-77
2022/09/26 07:26:47;;;;;;;6.70;1.60;;;;;;;;;;5024684;28;20042;-77
2022/09/26 07:29:17;;;;;;;2.25;1.40;;;;;;;;;;5022620;28;20482;-77
2022/09/26 07:31:45;;;;;;;1.85;1.00;;;;;;;;;;5018793;28;20136;-78
2022/09/26 07:34:13;;;;;;;1.92;1.30;;;;;;;;;;5022590;28;20044;-76
2022/09/26 07:36:46;;;;;;;2.83;1.48;;;;;;;;;;5013533;28;20072;-77
2022/09/26 07:39:15;;;;;;;3.08;1.67;;;;;;;;;;5025420;28;20494;-78
2022/09/26 07:41:44;;;;;;;2.65;1.10;;;;;;;;;;5025558;28;20049;-77
2022/09/26 07:44:15;;;;;;;2.25;1.13;;;;;;;;;;5020411;28;20136;-77
2022/09/26 07:52:36;;;;;;;1.85;1.10;;;;;;;;;;5022622;28;20209;-77
2022/09/26 07:55:05;;;;;;;3.83;1.90;;;;;;;;;;5023828;28;20056;-74
2022/09/26 07:57:34;;;;;;;2.88;1.48;;;;;;;;;;5023559;28;20107;-76
2022/09/26 08:00:06;;;;;;;3.58;1.92;;;;;;;;;;5025708;28;20060;-75
2022/09/26 08:02:36;;;;;;;2.80;1.52;;;;;;;;;;5023372;28;20506;-76
2022/09/26 08:05:05;;;;;;;2.88;1.25;;;;;;;;;;5018146;28;20045;-78
2022/09/26 08:07:34;;;;;;;1.85;1.15;;;;;;;;;;5016003;28;20052;-77
2022/09/26 08:10:03;;;;;;;3.35;1.85;;;;;;;;;;5024662;28;20041;-75
2022/09/26 08:12:35;;;;;;;3.30;1.65;;;;;;;;;;5021680;28;20475;-78
2022/09/26 08:15:05;;;;;;;3.83;1.42;;;;;;;;;;5015855;28;20054;-76
2022/09/26 08:17:34;;;;;;;3.35;1.35;;;;;;;;;;5017718;28;20049;-76
2022/09/26 08:20:03;;;;;;;3.40;1.10;;;;;;;;;;5026742;28;20057;-75
2022/09/26 08:22:31;;;;;;;5.65;1.58;;;;;;;;;;5010903;28;20080;-77
2022/09/26 08:25:00;;;;;;;2.63;1.08;;;;;;;;;;5021440;28;22180;-76
2022/09/26 08:27:32;;;;;;;1.25;0.80;;;;;;;;;;5022215;28;20057;-77
2022/09/26 08:30:01;;;;;;;2.90;1.35;;;;;;;;;;5018322;28;20045;-77
2022/09/26 08:32:32;;;;;;;2.53;1.02;;;;;;;;;;5022531;28;20054;-77
2022/09/26 08:35:01;;;;;;;1.73;1.05;;;;;;;;;;5021211;28;20064;-78
2022/09/26 08:37:29;;;;;;;2.10;1.13;;;;;;;;;;5016624;28;20485;-77
2022/09/26 08:39:59;;;;;;;2.55;1.30;;;;;;;;;;5024370;28;20331;-77
2022/09/26 08:42:36;;;;;;;1.65;1.00;;;;;;;;;;5022282;28;20696;-76
2022/09/26 08:48:27;;;;;;;2.33;0.82;;;;;;;;;;5023455;28;20116;-76
2022/09/26 08:51:00;;;;;;;1.15;0.60;;;;;;;;;;5013144;28;20108;-77
2022/09/26 08:53:30;;;;;;;4.47;1.45;;;;;;;;;;5019914;28;20108;-77
2022/09/26 08:55:58;;;;;;;2.15;1.23;;;;;;;;;;5022085;28;20152;-76
2022/09/26 08:58:28;;;;;;;1.05;0.65;;;;;;;;;;5022784;28;20063;-77
2022/09/26 09:00:59;;;;;;;2.67;0.85;;;;;;;;;;5026431;28;20465;-77
2022/09/26 09:03:31;;;;;;;2.30;0.95;;;;;;;;;;5016297;28;20773;-77
2022/09/26 09:06:02;;;;;;;1.85;0.95;;;;;;;;;;5017931;28;20053;-76
2022/09/26 09:08:35;;;;;;;1.33;0.85;;;;;;;;;;5026586;28;20466;-76
2022/09/26 09:11:07;;;;;;;1.60;0.77;;;;;;;;;;5014554;28;20096;-76
2022/09/26 09:13:57;;;;;;;1.73;0.80;;;;;;;;;;5021418;28;20042;-76
2022/09/26 09:16:32;;;;;;;2.85;0.95;;;;;;;;;;5013901;28;20081;-76
2022/09/26 09:19:08;;;;;;;3.08;1.25;;;;;;;;;;5024655;28;20072;-76
2022/09/26 09:21:42;;;;;;;1.45;0.55;;;;;;;;;;5020174;28;20069;-75
2022/09/26 09:24:16;;;;;;;1.95;0.80;;;;;;;;;;5024683;28;20144;-76
2022/09/26 09:26:50;;;;;;;0.85;0.63;;;;;;;;;;5014855;28;20140;-76
2022/09/26 09:29:43;;;;;;;1.00;0.88;;;;;;;;;;5017537;28;20049;-76
2022/09/26 09:32:19;;;;;;;1.23;0.88;;;;;;;;;;5020561;28;20053;-76
2022/09/26 09:34:49;;;;;;;3.03;1.02;;;;;;;;;;5021068;28;20486;-78
2022/09/26 09:37:22;;;;;;;0.43;0.30;;;;;;;;;;5014860;28;20049;-77
2022/09/26 09:39:51;;;;;;;0.50;0.47;;;;;;;;;;5018547;28;20069;-77
2022/09/26 09:42:22;;;;;;;1.33;0.80;;;;;;;;;;5021492;28;20044;-76
2022/09/26 09:44:54;;;;;;;2.40;0.88;;;;;;;;;;5007538;28;20104;-77
2022/09/26 09:47:23;;;;;;;0.80;0.43;;;;;;;;;;5022038;28;20058;-77
2022/09/26 09:49:53;;;;;;;0.60;0.40;;;;;;;;;;5025256;28;20482;-76
2022/09/26 09:52:45;;;;;;;0.40;0.40;;;;;;;;;;5021923;28;20075;-76
2022/09/26 09:55:17;;;;;;;0.32;0.32;;;;;;;;;;5007608;28;20065;-75
2022/09/26 09:58:00;;;;;;;0.43;0.43;;;;;;;;;;5015953;28;20054;-76
2022/09/26 10:00:28;;;;;;;1.83;0.77;;;;;;;;;;5024368;28;20054;-76
2022/09/26 10:03:00;;;;;;;1.75;0.93;;;;;;;;;;5025627;28;20409;-75
2022/09/26 10:05:36;;;;;;;0.75;0.50;;;;;;;;;;5012330;28;20080;-75
2022/09/26 10:08:06;;;;;;;0.90;0.50;;;;;;;;;;5024749;28;20145;-76
2022/09/26 10:10:38;;;;;;;0.50;0.40;;;;;;;;;;5019887;28;20516;-75
2022/09/26 10:13:09;;;;;;;0.85;0.43;;;;;;;;;;5017687;28;20104;-75
2022/09/26 10:15:42;;;;;;;0.55;0.32;;;;;;;;;;5022286;28;20509;-76
2022/09/26 10:18:15;;;;;;;0.80;0.60;;;;;;;;;;5024808;28;20482;-75
2022/09/26 10:20:55;;;;;;;0.65;0.30;;;;;;;;;;5018140;28;20074;-76
2022/09/26 10:23:27;;;;;;;1.77;0.45;;;;;;;;;;5022509;28;20080;-75
2022/09/26 10:25:58;;;;;;;0.60;0.50;;;;;;;;;;5023446;28;20060;-77
2022/09/26 10:28:29;;;;;;;0.43;0.30;;;;;;;;;;5016400;28;20049;-77
2022/09/26 10:31:02;;;;;;;0.40;0.40;;;;;;;;;;5012892;28;20123;-77
2022/09/26 10:33:33;;;;;;;0.68;0.57;;;;;;;;;;5022015;28;20045;-75
2022/09/26 10:36:18;;;;;;;5.90;0.65;;;;;;;;;;5016325;28;20042;-75
2022/09/26 10:41:41;;;;;;;0.45;0.45;;;;;;;;;;5021877;28;20075;-75
2022/09/26 10:44:22;;;;;;;0.73;0.32;;;;;;;;;;5014204;28;20058;-76
2022/09/26 10:46:51;;;;;;;0.68;0.50;;;;;;;;;;5005730;28;20053;-77
2022/09/26 10:49:22;;;;;;;2.05;0.57;;;;;;;;;;5024380;28;20073;-77
2022/09/26 10:51:59;;;;;;;4.07;0.60;;;;;;;;;;5021762;28;20410;-78
2022/09/26 10:54:40;;;;;;;1.08;0.98;;;;;;;;;;5025498;28;20365;-76
2022/09/26 10:57:18;;;;;;;0.60;0.60;;;;;;;;;;5021804;28;20052;-77
2022/09/26 10:59:47;;;;;;;0.57;0.43;;;;;;;;;;5014257;28;20054;-77
2022/09/26 11:02:18;;;;;;;1.15;0.57;;;;;;;;;;5014525;28;20050;-77
2022/09/26 11:07:39;;;;;;;2.10;0.70;;;;;;;;;;5023086;28;20050;-76
2022/09/26 11:10:10;;;;;;;1.55;0.50;;;;;;;;;;5021777;28;20056;-76
2022/09/26 11:12:40;;;;;;;1.23;0.75;;;;;;;;;;5016559;28;20154;-77
2022/09/26 11:15:09;;;;;;;0.80;0.63;;;;;;;;;;5014248;28;20045;-76
2022/09/26 11:17:43;;;;;;;2.05;0.93;;;;;;;;;;5019024;28;20045;-77
2022/09/26 11:20:17;;;;;;;0.73;0.65;;;;;;;;;;5009343;28;20092;-77
2022/09/26 11:22:50;;;;;;;0.65;0.32;;;;;;;;;;5020048;28;20053;-76
2022/09/26 11:25:22;;;;;;;1.55;0.68;;;;;;;;;;5021402;28;20552;-77
2022/09/26 11:28:13;;;;;;;3.03;0.90;;;;;;;;;;5021760;28;20052;-75
2022/09/26 11:31:04;;;;;;;1.40;0.65;;;;;;;;;;5018730;28;20476;-76
2022/09/26 11:33:32;;;;;;;1.13;0.30;;;;;;;;;;5016180;28;20506;-75
2022/09/26 11:36:15;;;;;;;0.50;0.40;;;;;;;;;;5011641;28;20359;-75
2022/09/26 11:38:46;;;;;;;0.45;0.45;;;;;;;;;;5021921;28;20053;-75
2022/09/26 11:41:40;;;;;;;0.77;0.52;;;;;;;;;;5018290;28;20054;-76
2022/09/26 11:44:22;;;;;;;0.88;0.40;;;;;;;;;;5018744;28;20152;-76
2022/09/26 11:47:00;;;;;;;1.35;0.60;;;;;;;;;;5003137;28;20517;-75
2022/09/26 11:49:43;;;;;;;0.95;0.60;;;;;;;;;;5017485;28;20049;-75
2022/09/26 11:52:19;;;;;;;1.27;0.60;;;;;;;;;;5010020;28;20486;-77
2022/09/26 11:54:58;;;;;;;1.63;0.68;;;;;;;;;;5018370;28;20050;-77
2022/09/26 11:57:35;;;;;;;0.95;0.50;;;;;;;;;;5022220;28;20057;-77
2022/09/26 12:00:08;;;;;;;1.35;0.40;;;;;;;;;;5021107;28;20506;-76
2022/09/26 12:02:46;;;;;;;1.00;0.47;;;;;;;;;;5024394;28;20057;-77
2022/09/26 12:05:23;;;;;;;1.20;0.70;;;;;;;;;;5013007;28;20124;-76
2022/09/26 12:07:59;;;;;;;3.50;0.80;;;;;;;;;;5026749;28;20136;-77
2022/09/26 12:10:33;;;;;;;0.20;0.20;;;;;;;;;;5016483;28;20049;-77
2022/09/26 12:13:17;;;;;;;0.90;0.40;;;;;;;;;;5016859;28;20077;-75
2022/09/26 12:15:54;;;;;;;0.27;0.27;;;;;;;;;;5016055;28;20085;-77
2022/09/26 12:18:26;;;;;;;1.35;0.88;;;;;;;;;;5021902;28;20148;-77
2022/09/26 12:21:04;;;;;;;0.75;0.75;;;;;;;;;;5019027;28;20052;-77
2022/09/26 12:23:35;;;;;;;1.13;0.47;;;;;;;;;;5017380;28;20074;-77
2022/09/26 12:26:09;;;;;;;0.47;0.40;;;;;;;;;;5016255;28;20049;-76
2022/09/26 12:28:44;;;;;;;1.27;0.55;;;;;;;;;;5014663;28;20038;-77
2022/09/26 12:31:19;;;;;;;1.85;0.50;;;;;;;;;;5015524;28;20050;-77
2022/09/26 12:33:57;;;;;;;0.45;0.45;;;;;;;;;;5014497;28;20100;-77
2022/09/26 12:36:38;;;;;;;1.15;0.35;;;;;;;;;;5022297;28;20076;-76
2022/09/26 12:39:17;;;;;;;2.55;1.00;;;;;;;;;;5015670;28;20762;-77
2022/09/26 12:41:58;;;;;;;0.40;0.40;;;;;;;;;;5021289;28;20132;-75
2022/09/26 12:44:36;;;;;;;0.60;0.47;;;;;;;;;;5020713;28;20445;-76
2022/09/26 12:47:15;;;;;;;1.80;0.85;;;;;;;;;;5022521;28;20472;-77
2022/09/26 12:49:48;;;;;;;2.35;0.60;;;;;;;;;;5028803;28;20053;-76
2022/09/26 12:52:21;;;;;;;0.70;0.45;;;;;;;;;;5023824;28;20328;-76
2022/09/26 12:54:59;;;;;;;0.60;0.60;;;;;;;;;;5019867;28;20426;-76
2022/09/26 12:57:37;;;;;;;0.65;0.57;;;;;;;;;;5018101;28;20046;-76
2022/09/26 13:00:12;;;;;;;1.92;1.42;;;;;;;;;;5020678;28;20053;-75
2022/09/26 13:02:47;;;;;;;0.45;0.32;;;;;;;;;;5023623;28;20480;-76
2022/09/26 13:05:19;;;;;;;0.63;0.52;;;;;;;;;;5016802;28;20253;-76
2022/09/26 13:07:54;;;;;;;0.80;0.47;;;;;;;;;;5019207;28;20045;-76
2022/09/26 13:10:28;;;;;;;1.20;0.52;;;;;;;;;;5018936;28;20422;-76
2022/09/26 13:13:09;;;;;;;1.37;0.70;;;;;;;;;;5024768;28;20057;-76
2022/09/26 13:15:42;;;;;;;0.25;0.25;;;;;;;;;;5025304;28;20057;-76
2022/09/26 13:18:14;;;;;;;0.93;0.50;;;;;;;;;;5028859;28;20565;-76
2022/09/26 13:20:43;;;;;;;1.05;0.60;;;;;;;;;;5025528;28;20050;-76
2022/09/26 13:23:17;;;;;;;1.95;0.70;;;;;;;;;;5012026;28;20054;-76
2022/09/26 13:25:49;;;;;;;0.35;0.35;;;;;;;;;;5015785;28;20054;-76
2022/09/26 13:28:22;;;;;;;0.32;0.30;;;;;;;;;;5026562;28;20053;-76
2022/09/26 13:30:53;;;;;;;0.85;0.50;;;;;;;;;;5022299;28;20053;-76
2022/09/26 13:33:23;;;;;;;1.45;0.38;;;;;;;;;;5020593;28;20168;-77
2022/09/26 13:35:53;;;;;;;0.75;0.47;;;;;;;;;;5019751;28;20042;-77
2022/09/26 13:38:36;;;;;;;1.73;0.60;;;;;;;;;;5027447;28;20494;-76
2022/09/26 13:41:09;;;;;;;0.60;0.40;;;;;;;;;;5015681;28;20093;-76
2022/09/26 13:43:48;;;;;;;1.35;0.55;;;;;;;;;;5028058;28;20123;-77
2022/09/26 13:46:24;;;;;;;0.20;0.20;;;;;;;;;;5020663;28;20046;-75
2022/09/26 13:48:59;;;;;;;1.50;0.55;;;;;;;;;;5010798;28;20053;-76
2022/09/26 13:51:33;;;;;;;0.52;0.50;;;;;;;;;;5017186;28;20485;-77
2022/09/26 13:54:15;;;;;;;1.85;0.50;;;;;;;;;;5025150;28;20108;-76
2022/09/26 13:56:46;;;;;;;1.65;0.47;;;;;;;;;;5042269;28;20414;-76
2022/09/26 13:59:26;;;;;;;1.90;0.57;;;;;;;;;;5022780;28;20089;-77
2022/09/26 14:02:14;;;;;;;1.92;0.47;;;;;;;;;;5023506;28;20049;-77
2022/09/26 14:04:43;;;;;;;0.43;0.30;;;;;;;;;;5024866;28;20049;-77
2022/09/26 14:10:29;;;;;;;0.57;0.35;;;;;;;;;;5025424;28;20045;-75
2022/09/26 14:13:07;;;;;;;0.47;0.32;;;;;;;;;;4998366;28;20065;-75
2022/09/26 14:15:50;;;;;;;0.80;0.40;;;;;;;;;;5017826;28;20424;-76
2022/09/26 14:18:27;;;;;;;0.68;0.40;;;;;;;;;;5017439;28;20117;-75
2022/09/26 14:21:04;;;;;;;1.00;0.43;;;;;;;;;;5021009;28;20056;-74
2022/09/26 14:23:43;;;;;;;0.55;0.30;;;;;;;;;;5029588;28;20523;-75
2022/09/26 14:26:13;;;;;;;1.27;0.57;;;;;;;;;;5024115;28;20057;-76
2022/09/26 14:28:47;;;;;;;0.28;0.28;;;;;;;;;;5023927;28;20072;-75
2022/09/26 14:31:32;;;;;;;0.38;0.38;;;;;;;;;;5019181;28;20058;-75
2022/09/26 14:34:01;;;;;;;;;;;;;;;;;;5023875;28;20080;-75
2022/09/26 14:36:32;;;;;;;1.00;0.43;;;;;;;;;;5022770;28;20613;-75
2022/09/26 14:39:01;;;;;;;0.22;0.20;;;;;;;;;;5022015;28;20073;-76
2022/09/26 14:41:31;;;;;;;2.35;0.50;;;;;;;;;;5023976;28;20038;-75
2022/09/26 14:44:02;;;;;;;1.65;0.45;;;;;;;;;;5035341;28;20058;-75
2022/09/26 14:46:34;;;;;;;0.68;0.35;;;;;;;;;;5025718;28;20127;-75
2022/09/26 14:49:04;;;;;;;0.93;0.50;;;;;;;;;;5028456;28;20104;-75
2022/09/26 14:51:35;;;;;;;1.90;0.60;;;;;;;;;;5030989;28;20053;-75
2022/09/26 14:54:05;;;;;;;2.10;0.40;;;;;;;;;;5027427;28;20168;-74
2022/09/26 14:56:41;;;;;;;0.57;0.47;;;;;;;;;;5023977;28;20053;-74
2022/09/26 14:59:26;;;;;;;0.68;0.52;;;;;;;;;;5023305;28;20088;-75
2022/09/26 15:02:10;;;;;;;1.35;0.47;;;;;;;;;;5024932;28;20103;-74
2022/09/26 15:04:39;;;;;;;0.50;0.28;;;;;;;;;;5025132;28;20053;-74
2022/09/26 15:07:14;;;;;;;0.43;0.40;;;;;;;;;;5019248;28;20046;-74
2022/09/26 15:09:43;;;;;;;0.75;0.40;;;;;;;;;;5020577;28;20049;-74
2022/09/26 15:12:16;;;;;;;0.32;0.30;;;;;;;;;;5023378;28;20056;-75
2022/09/26 15:14:47;;;;;;;0.40;0.30;;;;;;;;;;5022357;28;20062;-75
2022/09/26 15:17:18;;;;;;;0.55;0.40;;;;;;;;;;5018468;28;20052;-75
2022/09/26 15:19:48;;;;;;;0.30;0.30;;;;;;;;;;5015561;28;20042;-75
2022/09/26 15:22:22;;;;;;;0.57;0.43;;;;;;;;;;5030943;28;20292;-74
2022/09/26 15:24:53;;;;;;;0.85;0.43;;;;;;;;;;5030474;28;20111;-74
2022/09/26 15:27:25;;;;;;;0.55;0.40;;;;;;;;;;5031963;28;20115;-75
2022/09/26 15:29:56;;;;;;;0.30;0.30;;;;;;;;;;5022946;28;20050;-72
2022/09/26 15:32:26;;;;;;;1.58;0.50;;;;;;;;;;5023216;28;20600;-72
2022/09/26 15:34:55;;;;;;;2.40;0.63;;;;;;;;;;5022081;28;20053;-72
2022/09/26 15:37:28;;;;;;;7.38;0.32;;;;;;;;;;5028783;28;20055;-72
2022/09/26 15:39:56;;;;;;;0.40;0.15;;;;;;;;;;5021799;28;20526;-75